Terminal Aerodrome Forecast
Issued by NWS Charleston, WV

Current Version | Previous Version | Graphics & Text | Print | Product List | Glossary On
Versions: 1 2 3 4 5 6 7 8 9 10 11 12 13 14 15 16 17 18 19 20 21 22
625
FTUS41 KRLX 090557
TAFCRW
TAF
KCRW 090557Z 0906/1006 26007KT P6SM OVC015
      TEMPO 0907/0909 4SM -SHSN BKN008
     FM090900 25007KT P6SM -SHSN OVC015
     FM091400 25010G19KT P6SM OVC025
     FM100000 26009KT P6SM OVC015=

USA.gov is the U.S. government's official web portal to all federal, state and local government web resources and services.